Time;durP1;ratioP1;P1;durP2;ratioP2;P2;SDS_P1;SDS_P2;PMS_P1;PMS_P2;Temp;Humidity;BMP_temperature;BMP_pressure;BME280_temperature;BME280_humidity;BME280_pressure;Samples;Min_cycle;Max_cycle;Signal;HPM_P1;HPM_P2
2023/08/24 00:02:01;;;;;;;9.75;6.90;;;;;;;17.75;99.85;101705.44;5028642;28;20177;-75
2023/08/24 00:04:27;;;;;;;7.72;6.88;;;;;;;17.71;100.00;101696.03;5028188;28;21036;-76
2023/08/24 00:06:53;;;;;;;10.48;7.15;;;;;;;17.69;100.00;101700.66;5028894;28;20049;-76
2023/08/24 00:09:18;;;;;;;13.93;7.90;;;;;;;17.69;100.00;101701.50;5028269;28;20025;-76
2023/08/24 00:11:44;;;;;;;12.82;6.80;;;;;;;17.69;100.00;101704.16;5028322;28;20104;-76
2023/08/24 00:14:10;;;;;;;8.73;7.00;;;;;;;17.70;100.00;101707.66;5029945;28;20017;-76
2023/08/24 00:16:35;;;;;;;8.88;6.95;;;;;;;17.73;100.00;101710.06;5030530;28;20494;-76
2023/08/24 00:19:01;;;;;;;9.55;7.32;;;;;;;17.67;100.00;101698.16;5028054;28;20354;-75
2023/08/24 00:21:26;;;;;;;9.70;6.95;;;;;;;17.69;100.00;101690.03;5029804;28;20025;-75
2023/08/24 00:23:52;;;;;;;11.23;7.35;;;;;;;17.67;100.00;101684.00;5029050;28;20696;-76
2023/08/24 00:26:18;;;;;;;10.40;7.30;;;;;;;17.60;100.00;101674.81;5029186;28;20028;-76
2023/08/24 00:28:43;;;;;;;8.98;6.90;;;;;;;17.60;100.00;101675.66;5037883;28;20033;-76
2023/08/24 00:31:08;;;;;;;9.27;6.75;;;;;;;17.62;100.00;101691.53;5048994;28;20071;-76
2023/08/24 00:33:34;;;;;;;7.93;6.97;;;;;;;17.59;100.00;101692.63;5047168;28;20075;-75
2023/08/24 00:36:03;;;;;;;10.65;7.28;;;;;;;17.55;100.00;101681.41;5048808;28;20555;-75
2023/08/24 00:38:29;;;;;;;9.13;7.63;;;;;;;17.57;100.00;101686.59;5048276;28;20029;-75
2023/08/24 00:40:55;;;;;;;11.45;7.07;;;;;;;17.52;100.00;101672.84;5046832;28;20051;-76
2023/08/24 00:43:23;;;;;;;9.23;7.07;;;;;;;17.50;100.00;101667.69;5048554;28;20029;-76
2023/08/24 00:45:51;;;;;;;12.63;7.25;;;;;;;17.47;100.00;101665.28;5046986;28;20484;-76
2023/08/24 00:48:18;;;;;;;10.10;7.70;;;;;;;17.47;100.00;101664.47;5047435;28;20436;-75
2023/08/24 00:50:43;;;;;;;9.75;7.60;;;;;;;17.51;100.00;101664.03;5048557;28;20362;-76
2023/08/24 00:53:09;;;;;;;11.85;7.50;;;;;;;17.48;100.00;101674.13;5048362;28;20021;-75
2023/08/24 00:55:35;;;;;;;9.95;6.97;;;;;;;17.55;100.00;101675.25;5031496;28;20448;-75
2023/08/24 00:58:02;;;;;;;8.50;7.22;;;;;;;17.53;100.00;101677.19;5027311;28;20448;-76
2023/08/24 01:00:28;;;;;;;12.88;7.40;;;;;;;17.53;100.00;101667.41;5026241;28;20056;-76
2023/08/24 01:02:53;;;;;;;9.07;7.40;;;;;;;17.58;100.00;101668.81;5028560;28;20151;-75
2023/08/24 01:05:19;;;;;;;9.73;7.10;;;;;;;17.57;100.00;101659.13;5026853;28;20079;-76
2023/08/24 01:07:44;;;;;;;10.30;6.40;;;;;;;17.59;100.00;101657.19;5027836;28;20557;-75
2023/08/24 01:10:10;;;;;;;11.02;7.35;;;;;;;17.55;100.00;101656.63;5028773;28;20381;-75
2023/08/24 01:12:42;;;;;;;11.00;6.88;;;;;;;17.62;100.00;101665.75;5029857;28;20095;-75
2023/08/24 01:15:15;;;;;;;12.17;7.87;;;;;;;17.63;100.00;101671.91;5027849;28;20025;-76
2023/08/24 01:17:43;;;;;;;11.35;7.68;;;;;;;17.59;100.00;101675.81;5029875;28;20025;-76
2023/08/24 01:20:10;;;;;;;11.93;7.90;;;;;;;17.59;100.00;101666.00;5030837;28;20032;-76
2023/08/24 01:23:02;;;;;;;9.80;7.70;;;;;;;17.61;100.00;101658.75;5033054;28;20500;-76
2023/08/24 01:25:38;;;;;;;13.32;8.55;;;;;;;17.57;100.00;101656.47;5032979;28;20060;-75
2023/08/24 01:28:05;;;;;;;9.75;7.70;;;;;;;17.62;100.00;101659.59;5034758;28;20370;-75
2023/08/24 01:30:30;;;;;;;13.55;8.60;;;;;;;17.59;100.00;101649.19;5052248;28;20032;-75
2023/08/24 01:32:56;;;;;;;10.32;7.43;;;;;;;17.65;100.00;101661.97;5051813;28;20024;-75
2023/08/24 01:35:22;;;;;;;8.75;7.07;;;;;;;17.67;100.00;101662.69;5052389;28;20036;-75
2023/08/24 01:37:47;;;;;;;13.15;7.78;;;;;;;17.64;100.00;101663.78;5052032;28;20036;-75
2023/08/24 01:40:52;;;;;;;9.70;8.02;;;;;;;17.69;100.00;101652.75;5051679;28;20109;-75
2023/08/24 01:43:19;;;;;;;9.10;7.40;;;;;;;17.62;100.00;101646.28;5050200;28;20039;-75
2023/08/24 01:45:46;;;;;;;11.90;8.15;;;;;;;17.63;100.00;101651.47;5051566;28;20037;-76
2023/08/24 01:48:13;;;;;;;10.80;7.90;;;;;;;17.68;100.00;101651.06;5051486;28;20390;-76
2023/08/24 01:50:39;;;;;;;9.60;7.80;;;;;;;17.68;100.00;101656.41;5051039;28;20029;-76
2023/08/24 01:53:05;;;;;;;8.85;7.75;;;;;;;17.68;100.00;101651.91;5051667;28;20032;-76
2023/08/24 01:55:30;;;;;;;12.68;8.00;;;;;;;17.70;100.00;101657.09;5034595;28;20056;-76
2023/08/24 01:57:56;;;;;;;10.45;8.02;;;;;;;17.73;100.00;101668.31;5029559;28;20132;-75
2023/08/24 02:00:22;;;;;;;12.57;8.20;;;;;;;17.81;100.00;101670.25;5031174;28;20474;-76
2023/08/24 02:02:47;;;;;;;9.18;7.68;;;;;;;17.86;100.00;101668.00;5031498;28;20032;-75
2023/08/24 02:05:13;;;;;;;11.93;8.00;;;;;;;17.87;100.00;101656.38;5030797;28;20470;-76
2023/08/24 02:07:39;;;;;;;10.88;7.53;;;;;;;17.91;100.00;101664.91;5031418;28;20028;-75
2023/08/24 02:10:05;;;;;;;10.93;7.93;;;;;;;17.90;100.00;101650.78;5031289;28;20428;-75
2023/08/24 02:12:31;;;;;;;11.30;7.80;;;;;;;17.90;100.00;101642.78;5030533;28;20037;-75
2023/08/24 02:14:56;;;;;;;12.57;8.02;;;;;;;17.92;100.00;101637.31;5029937;28;20021;-76
2023/08/24 02:17:22;;;;;;;11.32;8.27;;;;;;;17.92;100.00;101635.50;5030803;28;20026;-76
2023/08/24 02:19:47;;;;;;;12.77;8.60;;;;;;;17.90;100.00;101642.78;5030473;28;20496;-75
2023/08/24 02:22:12;;;;;;;14.85;8.00;;;;;;;17.92;100.00;101656.78;5031989;28;20026;-75
2023/08/24 02:24:38;;;;;;;10.85;8.45;;;;;;;17.96;100.00;101647.53;5030571;28;20017;-76
2023/08/24 02:27:03;;;;;;;10.43;8.38;;;;;;;17.93;100.00;101644.31;5017334;28;20033;-76
2023/08/24 02:29:30;;;;;;;15.50;9.23;;;;;;;17.89;100.00;101630.44;5031835;28;20078;-75
2023/08/24 02:31:55;;;;;;;9.93;8.50;;;;;;;17.92;100.00;101640.81;5030738;28;20125;-75
2023/08/24 02:34:21;;;;;;;17.13;9.02;;;;;;;17.94;100.00;101643.34;5031261;28;20092;-75
2023/08/24 02:36:46;;;;;;;10.77;8.65;;;;;;;17.89;100.00;101643.75;5063780;28;20032;-75
2023/08/24 02:39:11;;;;;;;11.75;8.73;;;;;;;17.88;100.00;101639.44;5031298;28;20021;-76
2023/08/24 02:41:37;;;;;;;10.93;8.63;;;;;;;17.82;100.00;101632.84;5031855;28;20409;-75
2023/08/24 02:44:03;;;;;;;9.65;8.43;;;;;;;17.79;100.00;101613.66;5030580;28;20156;-76
2023/08/24 02:46:28;;;;;;;12.02;8.63;;;;;;;17.75;100.00;101612.25;5030552;28;20037;-76
2023/08/24 02:48:54;;;;;;;11.23;9.20;;;;;;;17.79;100.00;101603.84;5030453;28;20109;-75
2023/08/24 02:51:21;;;;;;;12.40;8.48;;;;;;;17.74;100.00;101597.28;5031326;28;20021;-74
2023/08/24 02:53:47;;;;;;;13.45;8.70;;;;;;;17.77;100.00;101579.19;5032595;28;20025;-76
2023/08/24 02:56:12;;;;;;;14.18;9.70;;;;;;;17.73;100.00;101571.63;5050250;28;20052;-76
2023/08/24 02:58:37;;;;;;;12.93;8.90;;;;;;;17.67;100.00;101561.56;5050528;28;20021;-77
2023/08/24 03:01:07;;;;;;;12.23;9.15;;;;;;;17.61;100.00;101562.06;5049747;28;20161;-76
2023/08/24 03:03:33;;;;;;;12.40;10.00;;;;;;;17.61;100.00;101548.75;5048771;28;20029;-74
2023/08/24 03:06:01;;;;;;;15.32;9.85;;;;;;;17.56;100.00;101530.56;5048656;28;20023;-75
2023/08/24 03:08:28;;;;;;;14.88;10.35;;;;;;;17.57;100.00;101504.78;5049384;28;20032;-75
2023/08/24 03:10:54;;;;;;;13.77;10.88;;;;;;;17.55;100.00;101487.16;5049949;28;20089;-75
2023/08/24 03:13:19;;;;;;;15.05;11.07;;;;;;;17.57;100.00;101494.16;5050001;28;20420;-75
2023/08/24 03:15:45;;;;;;;13.75;11.27;;;;;;;17.59;100.00;101501.00;5049311;28;20031;-76
2023/08/24 03:18:15;;;;;;;16.08;11.48;;;;;;;17.62;100.00;101506.06;5049836;28;20032;-75
2023/08/24 03:20:40;;;;;;;14.68;12.32;;;;;;;17.68;100.00;101505.53;5050043;28;20428;-76
2023/08/24 03:23:06;;;;;;;22.20;12.77;;;;;;;17.73;100.00;101481.13;5049428;28;20083;-76
2023/08/24 03:25:37;;;;;;;17.25;12.43;;;;;;;17.75;100.00;101479.16;5048324;28;20025;-76
2023/08/24 03:28:03;;;;;;;30.42;13.82;;;;;;;17.75;100.00;101474.69;5045398;28;20572;-76
2023/08/24 03:30:28;;;;;;;14.25;12.75;;;;;;;17.78;100.00;101463.75;5029588;28;20143;-75
2023/08/24 03:32:53;;;;;;;17.50;12.20;;;;;;;17.80;100.00;101458.28;5028777;28;20462;-76
2023/08/24 03:35:19;;;;;;;19.05;13.18;;;;;;;17.80;100.00;101455.59;5029908;28;20029;-76
2023/08/24 03:37:44;;;;;;;16.98;13.70;;;;;;;17.83;100.00;101453.50;5029564;28;20116;-76
2023/08/24 03:40:11;;;;;;;19.17;14.32;;;;;;;17.82;100.00;101443.00;5029256;28;20025;-76
2023/08/24 03:42:36;;;;;;;18.02;14.77;;;;;;;17.82;100.00;101432.34;5029781;28;20022;-76
2023/08/24 03:45:03;;;;;;;17.08;14.43;;;;;;;17.82;100.00;101429.69;5029339;28;20032;-76
2023/08/24 03:47:28;;;;;;;19.80;15.05;;;;;;;17.84;100.00;101425.03;5029985;28;20409;-76
2023/08/24 03:49:54;;;;;;;21.83;15.90;;;;;;;17.85;100.00;101432.88;5028892;28;20120;-76
2023/08/24 03:52:19;;;;;;;22.42;17.05;;;;;;;17.87;100.00;101429.25;5030024;28;20029;-76
2023/08/24 03:54:44;;;;;;;22.05;16.85;;;;;;;17.88;100.00;101439.75;5039434;28;20032;-76
2023/08/24 03:57:10;;;;;;;25.35;18.95;;;;;;;17.87;100.00;101446.06;5049628;28;20021;-76
2023/08/24 03:59:35;;;;;;;23.35;18.55;;;;;;;17.86;100.00;101447.03;5050554;28;20040;-76
2023/08/24 04:02:03;;;;;;;27.48;19.20;;;;;;;17.86;100.00;101460.34;5050102;28;20063;-76
2023/08/24 04:04:28;;;;;;;24.77;18.15;;;;;;;17.90;100.00;101445.75;5049387;28;20028;-76
2023/08/24 04:06:53;;;;;;;26.15;17.92;;;;;;;17.89;100.00;101451.22;5049259;28;20029;-75
2023/08/24 04:09:19;;;;;;;19.50;16.60;;;;;;;17.89;100.00;101460.06;5048917;28;20434;-75
2023/08/24 04:11:44;;;;;;;19.45;16.80;;;;;;;17.88;100.00;101463.69;5048106;28;20043;-75
2023/08/24 04:14:10;;;;;;;22.52;16.48;;;;;;;17.85;100.00;101458.66;5047444;28;20559;-75
2023/08/24 04:16:35;;;;;;;20.90;16.70;;;;;;;17.86;100.00;101473.66;5049284;28;20485;-75
2023/08/24 04:19:01;;;;;;;19.98;16.77;;;;;;;17.85;100.00;101466.66;5048149;28;20337;-75
2023/08/24 04:21:26;;;;;;;20.85;16.92;;;;;;;17.82;100.00;101465.13;5047211;28;20473;-75
2023/08/24 04:23:51;;;;;;;20.58;17.10;;;;;;;17.80;100.00;101468.91;5048801;28;20056;-75
2023/08/24 04:26:17;;;;;;;17.15;15.35;;;;;;;17.77;100.00;101471.88;5046841;28;20733;-75
2023/08/24 04:28:43;;;;;;;20.77;16.52;;;;;;;17.72;100.00;101474.97;5040677;28;20041;-75
2023/08/24 04:31:08;;;;;;;22.52;16.42;;;;;;;17.63;100.00;101480.28;5028733;28;20025;-75
2023/08/24 04:33:33;;;;;;;20.05;16.95;;;;;;;17.59;100.00;101471.72;5028375;28;20032;-75
2023/08/24 04:35:59;;;;;;;21.10;16.27;;;;;;;17.57;100.00;101472.84;5028803;28;20049;-75
2023/08/24 04:38:24;;;;;;;21.73;16.77;;;;;;;17.49;100.00;101471.75;5027968;28;20116;-75
2023/08/24 04:40:55;;;;;;;24.15;18.08;;;;;;;17.45;100.00;101467.72;5029016;28;20097;-75
2023/08/24 04:43:22;;;;;;;22.55;17.77;;;;;;;17.41;100.00;101468.97;5029479;28;20539;-75
2023/08/24 04:45:52;;;;;;;21.17;17.85;;;;;;;17.40;100.00;101469.97;5029129;28;20026;-75
2023/08/24 04:48:17;;;;;;;22.15;18.27;;;;;;;17.35;100.00;101480.19;5029379;28;20100;-75
2023/08/24 04:50:44;;;;;;;24.00;18.35;;;;;;;17.35;100.00;101472.22;5028420;28;20490;-75
2023/08/24 04:53:10;;;;;;;24.75;18.17;;;;;;;17.34;100.00;101475.84;5027549;28;20091;-75
2023/08/24 04:55:35;;;;;;;21.58;18.88;;;;;;;17.31;100.00;101464.66;5049453;28;20020;-75
2023/08/24 04:58:01;;;;;;;22.23;18.95;;;;;;;17.30;100.00;101463.81;5052277;28;20025;-75
2023/08/24 05:00:26;;;;;;;26.10;19.85;;;;;;;17.24;100.00;101467.06;5052809;28;20108;-75
2023/08/24 05:02:51;;;;;;;27.60;20.92;;;;;;;17.22;100.00;101461.88;5052147;28;20480;-75
2023/08/24 05:05:17;;;;;;;25.63;20.45;;;;;;;17.27;100.00;101468.59;5053695;28;20138;-75
2023/08/24 05:07:42;;;;;;;29.77;23.25;;;;;;;17.23;100.00;101479.50;5052852;28;20029;-75
2023/08/24 05:10:08;;;;;;;28.92;22.10;;;;;;;17.26;100.00;101488.19;5053528;28;20083;-75
2023/08/24 05:12:35;;;;;;;25.60;20.77;;;;;;;17.27;100.00;101484.53;5052646;28;20036;-75
2023/08/24 05:15:05;;;;;;;22.52;19.38;;;;;;;17.25;100.00;101482.03;5050517;28;20439;-75
2023/08/24 05:17:31;;;;;;;24.23;21.15;;;;;;;17.28;100.00;101470.25;5050952;28;20051;-75
2023/08/24 05:19:57;;;;;;;25.75;19.92;;;;;;;17.29;100.00;101467.47;5052371;28;20078;-75
2023/08/24 05:22:23;;;;;;;25.58;20.83;;;;;;;17.32;100.00;101467.19;5049968;28;20039;-75
2023/08/24 05:24:48;;;;;;;25.60;20.02;;;;;;;17.32;100.00;101459.19;5052275;28;20021;-75
2023/08/24 05:27:14;;;;;;;27.48;20.95;;;;;;;17.31;100.00;101446.88;5050862;28;20021;-75
2023/08/24 05:29:39;;;;;;;27.88;20.30;;;;;;;17.29;100.00;101445.34;5035984;28;20079;-75
2023/08/24 05:32:05;;;;;;;25.88;21.10;;;;;;;17.29;100.00;101448.00;5032292;28;20059;-75
2023/08/24 05:34:30;;;;;;;24.45;20.83;;;;;;;17.33;100.00;101446.72;5031618;28;20456;-75
2023/08/24 05:36:56;;;;;;;24.50;20.77;;;;;;;17.35;100.00;101450.09;5032290;28;20017;-75
2023/08/24 05:39:21;;;;;;;26.65;21.65;;;;;;;17.38;100.00;101455.97;5030776;28;20026;-75
2023/08/24 05:41:50;;;;;;;25.52;21.40;;;;;;;17.40;100.00;101448.69;5031316;28;20028;-75
2023/08/24 05:44:16;;;;;;;26.05;21.95;;;;;;;17.44;100.00;101443.91;5032001;28;20030;-75
2023/08/24 05:46:42;;;;;;;25.38;21.58;;;;;;;17.51;100.00;101439.69;5031404;28;20382;-76
2023/08/24 05:49:08;;;;;;;24.67;21.58;;;;;;;17.60;100.00;101443.28;5030025;28;20032;-75
2023/08/24 05:51:33;;;;;;;25.50;21.98;;;;;;;17.61;100.00;101445.84;5030752;28;20033;-75
2023/08/24 05:53:58;;;;;;;26.13;21.05;;;;;;;17.64;100.00;101434.91;5035518;28;20012;-75
2023/08/24 05:56:24;;;;;;;25.92;21.48;;;;;;;17.66;100.00;101432.09;5051090;28;20431;-75
2023/08/24 05:58:50;;;;;;;28.25;21.50;;;;;;;17.74;100.00;101419.75;5052395;28;20036;-76
2023/08/24 06:01:15;;;;;;;25.83;21.60;;;;;;;17.77;100.00;101413.31;5052497;28;20472;-75
2023/08/24 06:03:41;;;;;;;24.60;20.45;;;;;;;17.82;100.00;101405.72;5051847;28;20025;-75
2023/08/24 06:06:08;;;;;;;23.70;21.17;;;;;;;17.84;100.00;101409.06;5050665;28;20064;-76
2023/08/24 06:08:34;;;;;;;23.25;20.65;;;;;;;17.84;100.00;101404.59;5052503;28;20057;-76
2023/08/24 06:11:00;;;;;;;26.08;20.75;;;;;;;17.87;100.00;101392.81;5051694;28;20075;-76
2023/08/24 06:13:25;;;;;;;25.70;21.58;;;;;;;17.93;100.00;101386.03;5051806;28;20541;-76
2023/08/24 06:15:51;;;;;;;26.15;20.40;;;;;;;17.97;100.00;101372.28;5052084;28;20028;-76
2023/08/24 06:18:16;;;;;;;22.48;20.10;;;;;;;18.01;100.00;101379.00;5051520;28;20033;-75
2023/08/24 06:20:45;;;;;;;23.88;20.75;;;;;;;18.08;100.00;101384.59;5050667;28;20031;-76
2023/08/24 06:23:13;;;;;;;24.55;21.27;;;;;;;18.14;100.00;101390.16;5051942;28;20027;-76
2023/08/24 06:25:38;;;;;;;24.38;20.23;;;;;;;18.23;100.00;101392.91;5050625;28;20174;-76
2023/08/24 06:28:04;;;;;;;24.02;20.58;;;;;;;18.26;100.00;101398.75;5048539;28;20056;-76
2023/08/24 06:30:36;;;;;;;24.80;19.80;;;;;;;18.33;100.00;101393.66;5029617;28;20029;-76
2023/08/24 06:33:02;;;;;;;25.95;19.75;;;;;;;18.42;100.00;101395.44;5030388;28;20033;-76
2023/08/24 06:35:28;;;;;;;22.98;19.65;;;;;;;18.50;100.00;101394.69;5030607;28;20029;-76
2023/08/24 06:37:53;;;;;;;25.52;19.75;;;;;;;18.57;100.00;101391.25;5030438;28;20071;-76
2023/08/24 06:40:19;;;;;;;25.63;19.38;;;;;;;18.64;100.00;101392.34;5030900;28;20029;-76
2023/08/24 06:42:44;;;;;;;23.75;18.83;;;;;;;18.74;100.00;101381.59;5029452;28;20026;-76
2023/08/24 06:45:10;;;;;;;23.50;17.95;;;;;;;18.83;100.00;101382.53;5030112;28;20030;-75
2023/08/24 06:47:36;;;;;;;23.90;17.27;;;;;;;18.88;100.00;101390.91;5030757;28;20053;-75
2023/08/24 06:50:01;;;;;;;20.73;16.35;;;;;;;19.00;100.00;101387.00;5029464;28;20037;-75
2023/08/24 06:52:26;;;;;;;24.30;16.92;;;;;;;19.05;100.00;101395.38;5028672;28;20417;-76
2023/08/24 06:54:55;;;;;;;21.48;15.32;;;;;;;19.12;100.00;101390.25;5041815;28;20568;-75
2023/08/24 06:57:20;;;;;;;18.67;15.88;;;;;;;19.25;100.00;101396.88;5050578;28;20025;-76
2023/08/24 06:59:46;;;;;;;17.60;15.68;;;;;;;19.34;100.00;101395.91;5049736;28;20027;-75
2023/08/24 07:02:11;;;;;;;19.88;16.35;;;;;;;19.47;100.00;101394.66;5050708;28;20025;-75
2023/08/24 07:04:38;;;;;;;20.50;15.50;;;;;;;19.60;100.00;101387.06;5051478;28;20048;-75
2023/08/24 07:07:03;;;;;;;17.67;14.80;;;;;;;19.75;99.63;101376.66;5049546;28;20095;-75
2023/08/24 07:09:29;;;;;;;18.77;14.10;;;;;;;19.90;95.91;101367.03;5049774;28;20432;-75
2023/08/24 07:11:54;;;;;;;18.13;13.48;;;;;;;20.05;95.67;101365.44;5051271;28;20428;-75
2023/08/24 07:14:20;;;;;;;18.92;13.93;;;;;;;20.26;93.85;101359.63;5050428;28;20064;-75
2023/08/24 07:16:46;;;;;;;20.17;14.43;;;;;;;20.43;94.34;101361.38;5049430;28;20059;-74
2023/08/24 07:19:11;;;;;;;16.60;13.00;;;;;;;20.53;91.22;101356.69;5050465;28;20025;-75
2023/08/24 07:21:37;;;;;;;17.13;13.35;;;;;;;20.74;91.67;101358.03;5050681;28;20024;-75
2023/08/24 07:24:03;;;;;;;17.58;12.85;;;;;;;20.95;90.95;101356.53;5050989;28;20022;-75
2023/08/24 07:26:30;;;;;;;17.70;12.93;;;;;;;21.20;90.58;101354.63;5050699;28;20052;-75
2023/08/24 07:28:55;;;;;;;18.95;12.45;;;;;;;21.47;89.13;101363.31;5040532;28;20021;-75
2023/08/24 07:31:22;;;;;;;13.85;12.27;;;;;;;21.63;86.83;101357.09;5029452;28;20078;-75
2023/08/24 07:33:48;;;;;;;18.25;12.00;;;;;;;21.81;84.90;101363.88;5029284;28;20028;-75
2023/08/24 07:36:13;;;;;;;15.63;12.02;;;;;;;22.07;84.82;101358.25;5030202;28;20018;-75
2023/08/24 07:38:39;;;;;;;16.23;12.15;;;;;;;22.19;81.88;101361.38;5030913;28;20532;-75
2023/08/24 07:41:06;;;;;;;15.43;11.70;;;;;;;;;;5030064;28;20068;-75
2023/08/24 07:43:31;;;;;;;18.83;11.32;;;;;;;22.48;79.97;101350.78;5029342;28;20033;-75
2023/08/24 07:45:57;;;;;;;13.50;11.20;;;;;;;22.64;80.22;101346.31;5029472;28;20808;-75
2023/08/24 07:48:22;;;;;;;13.60;11.65;;;;;;;22.77;79.49;101346.50;5029035;28;20057;-75
2023/08/24 07:50:47;;;;;;;17.05;11.45;;;;;;;22.87;80.51;101344.47;5029555;28;20031;-76
2023/08/24 07:53:14;;;;;;;17.05;11.38;;;;;;;23.07;80.26;101350.97;5028332;28;20025;-76
2023/08/24 07:55:39;;;;;;;13.95;10.55;;;;;;;23.16;80.56;101349.03;5046659;28;20493;-75
2023/08/24 07:58:05;;;;;;;15.27;10.98;;;;;;;23.29;77.73;101348.41;5049494;28;20228;-75
2023/08/24 08:00:30;;;;;;;11.35;9.85;;;;;;;23.27;77.46;101356.66;5049185;28;20366;-76
2023/08/24 08:02:56;;;;;;;11.30;10.13;;;;;;;23.40;77.17;101361.38;5048584;28;20055;-76
2023/08/24 08:05:22;;;;;;;15.65;9.85;;;;;;;23.50;77.02;101356.56;5049138;28;20500;-75
2023/08/24 08:07:48;;;;;;;11.52;9.27;;;;;;;23.62;76.92;101349.75;5049143;28;20094;-75
2023/08/24 08:10:15;;;;;;;13.15;10.10;;;;;;;23.62;74.86;101352.44;5048633;28;20025;-75
2023/08/24 08:12:40;;;;;;;10.63;9.48;;;;;;;23.80;75.05;101345.81;5047957;28;20029;-75
2023/08/24 08:15:06;;;;;;;12.93;9.50;;;;;;;23.94;73.25;101347.66;5049148;28;20017;-75
2023/08/24 08:17:33;;;;;;;13.93;8.80;;;;;;;23.98;72.77;101336.31;5048463;28;20115;-76
2023/08/24 08:19:58;;;;;;;10.15;8.40;;;;;;;24.06;72.05;101338.09;5049804;28;20023;-74
2023/08/24 08:22:25;;;;;;;16.67;8.90;;;;;;;24.20;72.59;101322.91;5049832;28;20037;-76
2023/08/24 08:24:51;;;;;;;11.77;8.82;;;;;;;24.36;70.80;101325.38;5047937;28;20115;-75
2023/08/24 08:27:16;;;;;;;12.98;10.13;;;;;;;24.13;71.11;101309.41;5048617;28;20116;-75
2023/08/24 08:29:42;;;;;;;12.27;9.15;;;;;;;24.30;71.89;101316.22;5032021;28;20028;-75
2023/08/24 08:32:08;;;;;;;13.15;8.75;;;;;;;24.27;70.75;101322.00;5028172;28;20022;-75
2023/08/24 08:34:33;;;;;;;12.18;9.20;;;;;;;24.28;72.68;101326.34;5028719;28;20121;-75
2023/08/24 08:36:59;;;;;;;12.57;9.30;;;;;;;24.21;70.34;101309.28;5029762;28;20078;-75
2023/08/24 08:39:24;;;;;;;13.32;9.18;;;;;;;24.08;71.16;101316.38;5029017;28;20171;-75
2023/08/24 08:41:50;;;;;;;14.77;9.50;;;;;;;24.08;72.86;101308.31;5029895;28;20075;-74
2023/08/24 08:44:16;;;;;;;13.68;9.77;;;;;;;24.13;73.16;101297.81;5029375;28;20493;-75
2023/08/24 08:46:45;;;;;;;15.60;9.23;;;;;;;24.16;73.31;101284.81;5028027;28;20514;-75
2023/08/24 08:49:15;;;;;;;15.52;8.73;;;;;;;24.23;71.34;101280.34;5028742;28;20404;-75
2023/08/24 08:51:43;;;;;;;14.60;8.95;;;;;;;24.38;72.43;101270.34;5027093;28;20421;-75
2023/08/24 08:54:09;;;;;;;12.75;7.90;;;;;;;24.55;70.18;101264.72;5034176;28;20443;-74
2023/08/24 08:56:34;;;;;;;12.75;8.93;;;;;;;24.69;70.07;101258.41;5048967;28;20028;-75
2023/08/24 08:59:02;;;;;;;16.80;9.35;;;;;;;24.77;70.40;101252.88;5047933;28;20377;-75
2023/08/24 09:01:28;;;;;;;12.75;9.23;;;;;;;24.76;69.92;101245.00;5048496;28;20537;-75
2023/08/24 09:03:54;;;;;;;15.43;9.02;;;;;;;24.86;71.40;101238.25;5048740;28;20074;-74
2023/08/24 09:06:21;;;;;;;14.27;9.15;;;;;;;24.88;71.89;101229.97;5047853;28;20539;-75
2023/08/24 09:08:48;;;;;;;13.43;9.43;;;;;;;24.99;71.34;101219.50;5048693;28;20408;-75
2023/08/24 09:11:17;;;;;;;15.20;9.15;;;;;;;25.02;70.04;101220.13;5048586;28;20036;-75
2023/08/24 09:13:42;;;;;;;14.85;8.50;;;;;;;25.10;70.15;101209.19;5047939;28;20029;-75
2023/08/24 09:16:15;;;;;;;12.55;8.60;;;;;;;25.23;70.09;101204.72;5048605;28;20024;-75
2023/08/24 09:18:46;;;;;;;15.93;8.43;;;;;;;25.32;70.17;101191.91;5047435;28;20571;-75
2023/08/24 09:21:15;;;;;;;11.05;8.98;;;;;;;25.32;68.92;101194.59;5048003;28;20013;-75
2023/08/24 09:23:55;;;;;;;12.00;8.63;;;;;;;25.29;70.06;101186.91;5048652;28;20397;-75
2023/08/24 09:26:33;;;;;;;14.38;8.57;;;;;;;25.32;68.96;101189.22;5048226;28;20025;-76
2023/08/24 09:29:00;;;;;;;12.40;8.75;;;;;;;25.31;67.88;101187.53;5036431;28;20373;-76
2023/08/24 09:31:39;;;;;;;12.27;8.38;;;;;;;25.32;68.35;101194.59;5028732;28;20045;-76
2023/08/24 09:34:06;;;;;;;13.05;7.85;;;;;;;25.28;68.49;101204.09;5027587;28;20040;-76
2023/08/24 09:36:36;;;;;;;13.23;8.85;;;;;;;25.27;69.61;101200.59;5028089;28;20024;-76
2023/08/24 09:39:06;;;;;;;14.00;9.73;;;;;;;25.35;70.81;101217.59;5029315;28;20045;-75
2023/08/24 09:41:43;;;;;;;13.32;10.35;;;;;;;25.38;70.73;101236.06;5030398;28;20032;-75
2023/08/24 09:44:09;;;;;;;11.25;9.80;;;;;;;25.29;70.54;101243.47;5033000;28;20029;-75
2023/08/24 09:46:37;;;;;;;12.13;9.93;;;;;;;25.42;71.20;101250.78;5032632;28;20370;-75
2023/08/24 09:49:05;;;;;;;19.58;9.85;;;;;;;25.46;70.76;101241.25;5031112;28;20036;-75
2023/08/24 09:51:32;;;;;;;14.52;10.00;;;;;;;25.42;70.27;101243.53;5031513;28;20497;-75
2023/08/24 09:54:01;;;;;;;15.63;10.18;;;;;;;25.46;70.81;101235.88;5036790;28;20052;-75
2023/08/24 09:56:29;;;;;;;14.35;10.82;;;;;;;25.33;68.84;101252.81;5050512;28;20524;-75
2023/08/24 09:58:58;;;;;;;11.15;9.52;;;;;;;25.43;70.65;101258.66;5052598;28;20028;-75
2023/08/24 10:01:24;;;;;;;13.32;10.10;;;;;;;25.46;71.18;101252.03;5052508;28;20027;-75
2023/08/24 10:03:55;;;;;;;12.13;9.32;;;;;;;25.44;70.38;101264.88;5051603;28;20114;-75
2023/08/24 10:06:23;;;;;;;13.77;9.35;;;;;;;25.39;73.40;101270.88;5052248;28;20024;-75
2023/08/24 10:08:54;;;;;;;10.40;7.18;;;;;;;25.48;68.99;101272.38;5050582;28;20187;-75
2023/08/24 10:11:24;;;;;;;13.05;7.97;;;;;;;25.48;72.48;101276.94;5052130;28;20024;-76
2023/08/24 10:14:16;;;;;;;9.90;6.55;;;;;;;25.63;71.74;101279.50;5051791;28;20025;-75
2023/08/24 10:16:44;;;;;;;12.13;7.00;;;;;;;25.48;68.99;101283.16;5042660;28;20060;-76
2023/08/24 10:19:10;;;;;;;9.95;5.72;;;;;;;25.54;69.75;101270.72;5051655;28;20104;-77
2023/08/24 10:21:40;;;;;;;11.45;5.72;;;;;;;25.46;69.15;101273.59;5050479;28;20496;-76
2023/08/24 10:24:08;;;;;;;8.57;5.38;;;;;;;25.34;68.56;101265.28;5049893;28;20033;-76
2023/08/24 10:26:34;;;;;;;9.77;5.20;;;;;;;25.26;70.43;101262.75;5050096;28;20496;-76
2023/08/24 10:29:00;;;;;;;9.50;5.43;;;;;;;25.16;70.79;101273.03;5041140;28;20030;-76
2023/08/24 10:31:26;;;;;;;12.48;5.55;;;;;;;25.06;72.42;101277.94;5030835;28;20029;-76
2023/08/24 10:33:54;;;;;;;13.35;5.57;;;;;;;25.07;70.18;101285.00;5031188;28;20108;-76
2023/08/24 10:36:22;;;;;;;12.40;5.03;;;;;;;25.04;72.32;101293.47;5031657;28;20017;-76
2023/08/24 10:38:48;;;;;;;9.75;5.28;;;;;;;24.97;72.84;101286.16;5030430;28;20025;-76
2023/08/24 10:41:14;;;;;;;8.95;4.80;;;;;;;24.87;72.59;101287.53;5031059;28;20039;-76
2023/08/24 10:43:49;;;;;;;8.30;4.60;;;;;;;24.82;72.95;101301.59;5031348;28;20035;-77
2023/08/24 10:46:18;;;;;;;10.18;4.82;;;;;;;24.73;73.50;101301.91;5028827;28;20021;-75
2023/08/24 10:48:46;;;;;;;13.23;5.25;;;;;;;24.71;73.86;101290.50;5030676;28;20057;-75
2023/08/24 10:51:19;;;;;;;12.18;5.53;;;;;;;24.63;74.46;101288.78;5030714;28;20393;-75
2023/08/24 10:53:46;;;;;;;10.50;5.40;;;;;;;24.61;73.76;101291.69;5032582;28;20075;-75
2023/08/24 10:56:16;;;;;;;11.55;5.47;;;;;;;24.51;75.33;101280.44;5051740;28;20081;-76
2023/08/24 10:58:45;;;;;;;9.70;5.70;;;;;;;24.57;75.16;101287.72;5051233;28;20017;-74
2023/08/24 11:01:21;;;;;;;10.25;5.80;;;;;;;24.70;75.12;101268.13;5051443;28;20044;-75
2023/08/24 11:03:54;;;;;;;9.55;5.53;;;;;;;24.75;75.33;101279.16;5051797;28;20021;-76
2023/08/24 11:06:23;;;;;;;;;;;;;;;24.90;74.90;101279.91;5057583;28;20118;-76
2023/08/24 11:08:49;;;;;;;7.93;5.80;;;;;;;24.81;75.35;101275.66;5072015;28;19893;-75